KTOI

Troy Municipal at N Kenneth Campbell Field Airport

Troy, Alabama, USA
KTOI 252343Z 2600/2624 35008KT P6SM FEW040 BKN250 FM261300 12005KT P6SM VCSH OVC030 FM261600 17010KT 4SM RA VCTS OVC020CB FM261900 23012G18KT P6SM SHRA OVC025 FM262100 27012G20KT P6SM VCSH OVC030
Issued Valid From Valid To
Apr-25 @ 23:43 UTC
(4 hours ago)
Apr-26 @ 00:00 UTC
(4 hours ago)
Apr-27 @ 00:00 UTC
(in 20 hours)
Apr-26 @ 00:00 to Apr-26 @ 13:00
KTOI 252343Z 2600/2624 35008KT P6SM FEW040 BKN250
Wind Visibility Clouds
350° at 8 knots Greater than 6 miles
  • Few at 4,000' AGL
  • Broken at 25,000' AGL
From Apr-26 @ 13:00 to Apr-26 @ 16:00
FM261300 12005KT P6SM VCSH OVC030
Wind Visibility Clouds
120° at 5 knots Greater than 6 miles
  • Overcast at 3,000' AGL
From Apr-26 @ 16:00 to Apr-26 @ 19:00
FM261600 17010KT 4SM RA VCTS OVC020CB
Wind Visibility Clouds Conditions
170° at 10 knots 4 miles
  • Overcast at 2,000' AGL
  • Rain
  • Area Thunderstorm
From Apr-26 @ 19:00 to Apr-26 @ 21:00
FM261900 23012G18KT P6SM SHRA OVC025
Wind Visibility Clouds Conditions
230° at 12 knots
 Gusting to 18 knots
Greater than 6 miles
  • Overcast at 2,500' AGL
  • Rain
From Apr-26 @ 21:00 to Apr-27 @ 00:00
FM262100 27012G20KT P6SM VCSH OVC030
Wind Visibility Clouds
270° at 12 knots
 Gusting to 20 knots
Greater than 6 miles
  • Overcast at 3,000' AGL
KTOI 252343Z 2600/2624 35008KT P6SM FEW040 BKN250 FM261300 12005KT P6SM VCSH OVC030 FM261600 17010KT 4SM RA VCTS OVC020CB FM261900 23012G18KT P6SM SHRA OVC025 FM262100 27012G20KT P6SM VCSH OVC030
Issued Apr-25 @ 23:43 UTC
(4 hours ago)
Valid From Apr-26 @ 00:00 UTC
(4 hours ago)
Valid To Apr-27 @ 00:00 UTC
(in 20 hours)
Apr-26 @ 00:00 - Apr-26 @ 13:00
Wind Visibility
350° at 8 knots Greater than 6 miles
Clouds
  • Few at 4,000' AGL
  • Broken at 25,000' AGL
From Apr-26 @ 13:00 - Apr-26 @ 16:00
Wind Visibility
120° at 5 knots Greater than 6 miles
Clouds
  • Overcast at 3,000' AGL
From Apr-26 @ 16:00 - Apr-26 @ 19:00
Wind Visibility
170° at 10 knots 4 miles
Clouds
  • Overcast at 2,000' AGL
Conditions
  • Rain
  • Area Thunderstorm
From Apr-26 @ 19:00 - Apr-26 @ 21:00
Wind Visibility
230° at 12 knots
 Gusting to 18 knots
Greater than 6 miles
Clouds
  • Overcast at 2,500' AGL
Conditions
  • Rain
From Apr-26 @ 21:00 - Apr-27 @ 00:00
Wind Visibility
270° at 12 knots
 Gusting to 20 knots
Greater than 6 miles
Clouds
  • Overcast at 3,000' AGL